Time;durP1;ratioP1;P1;durP2;ratioP2;P2;SDS_P1;SDS_P2;PMS_P1;PMS_P2;Temp;Humidity;BMP_temperature;BMP_pressure;BME280_temperature;BME280_humidity;BME280_pressure;Samples;Min_cycle;Max_cycle;Signal;HPM_P1;HPM_P2
2023/02/24 00:03:09;;;;;;;27.48;14.93;;;;;;;;;;10405978;28;20022;-66
2023/02/24 00:08:10;;;;;;;23.20;14.45;;;;;;;;;;10406382;28;20040;-68
2023/02/24 00:13:11;;;;;;;18.33;12.75;;;;;;;;;;10405453;28;20036;-68
2023/02/24 00:18:11;;;;;;;21.55;13.52;;;;;;;;;;10405987;28;20031;-60
2023/02/24 00:23:17;;;;;;;20.67;14.45;;;;;;;;;;10405829;28;20407;-69
2023/02/24 00:28:17;;;;;;;17.42;13.35;;;;;;;;;;10406165;28;20033;-66
2023/02/24 00:33:22;;;;;;;19.83;13.20;;;;;;;;;;10405656;28;20029;-66
2023/02/24 00:38:24;;;;;;;23.95;12.48;;;;;;;;;;10406046;28;20033;-66
2023/02/24 00:43:24;;;;;;;18.15;13.00;;;;;;;;;;10404705;28;20045;-66
2023/02/24 00:48:27;;;;;;;21.75;14.20;;;;;;;;;;10405884;28;20033;-67
2023/02/24 00:53:28;;;;;;;19.55;12.38;;;;;;;;;;10404905;28;20022;-66
2023/02/24 00:58:30;;;;;;;18.05;12.25;;;;;;;;;;10407443;28;20037;-68
2023/02/24 01:03:31;;;;;;;18.15;13.25;;;;;;;;;;10411979;28;20053;-66
2023/02/24 01:08:35;;;;;;;15.98;11.95;;;;;;;;;;10411956;28;20047;-69
2023/02/24 01:13:35;;;;;;;16.73;12.55;;;;;;;;;;10411407;28;20253;-68
2023/02/24 01:18:36;;;;;;;16.70;12.20;;;;;;;;;;10411399;28;20601;-60
2023/02/24 01:23:37;;;;;;;19.65;12.40;;;;;;;;;;10411671;28;20483;-69
2023/02/24 01:28:37;;;;;;;17.25;11.73;;;;;;;;;;10411411;28;20503;-66
2023/02/24 01:33:38;;;;;;;17.42;12.27;;;;;;;;;;10411348;28;20029;-68
2023/02/24 01:38:41;;;;;;;18.58;12.10;;;;;;;;;;10411666;28;20030;-66
2023/02/24 01:44:04;;;;;;;17.17;11.82;;;;;;;;;;10410622;28;20057;-66
2023/02/24 01:49:24;;;;;;;18.42;11.65;;;;;;;;;;10410424;28;20025;-68
2023/02/24 01:54:40;;;;;;;15.45;12.25;;;;;;;;;;10401918;28;20514;-68
2023/02/24 01:59:44;;;;;;;16.25;11.85;;;;;;;;;;10394602;28;20025;-69
2023/02/24 02:04:55;;;;;;;16.23;12.13;;;;;;;;;;10409264;28;20021;-68
2023/02/24 02:10:05;;;;;;;17.05;12.05;;;;;;;;;;10393598;28;20503;-69
2023/02/24 02:15:07;;;;;;;16.42;11.50;;;;;;;;;;10393386;28;20084;-69
2023/02/24 02:20:18;;;;;;;20.25;12.07;;;;;;;;;;10392041;28;20037;-59
2023/02/24 02:25:40;;;;;;;15.95;11.77;;;;;;;;;;10409144;28;20531;-66
2023/02/24 02:31:14;;;;;;;16.48;11.52;;;;;;;;;;10408659;28;20025;-66
2023/02/24 02:36:44;;;;;;;14.70;11.40;;;;;;;;;;10364465;28;20042;-67
2023/02/24 02:42:05;;;;;;;15.73;11.55;;;;;;;;;;10391239;28;20438;-65
2023/02/24 02:47:33;;;;;;;16.00;11.13;;;;;;;;;;10354706;28;20066;-67
2023/02/24 02:52:41;;;;;;;15.07;10.20;;;;;;;;;;10350096;28;20050;-65
2023/02/24 02:57:48;;;;;;;15.20;11.00;;;;;;;;;;10349413;28;20100;-67
2023/02/24 03:02:57;;;;;;;16.92;10.77;;;;;;;;;;10359136;28;20053;-65
2023/02/24 03:08:00;;;;;;;12.88;9.80;;;;;;;;;;10361961;28;20025;-66
2023/02/24 03:13:04;;;;;;;13.43;10.57;;;;;;;;;;10355269;28;20038;-66
2023/02/24 03:18:13;;;;;;;14.43;11.05;;;;;;;;;;10362207;28;20053;-59
2023/02/24 03:23:25;;;;;;;15.35;10.55;;;;;;;;;;10337311;28;20032;-65
2023/02/24 03:28:41;;;;;;;14.80;10.73;;;;;;;;;;10348820;28;20061;-69
2023/02/24 03:33:56;;;;;;;14.43;10.35;;;;;;;;;;10366760;28;20033;-69
2023/02/24 03:38:57;;;;;;;12.48;9.98;;;;;;;;;;10353328;28;20145;-63
2023/02/24 03:44:00;;;;;;;13.80;10.35;;;;;;;;;;10350779;28;20121;-68
2023/02/24 03:49:15;;;;;;;15.50;10.65;;;;;;;;;;10390953;28;20395;-67
2023/02/24 03:55:01;;;;;;;13.45;10.55;;;;;;;;;;10394934;28;20026;-67
2023/02/24 04:00:21;;;;;;;12.00;9.82;;;;;;;;;;10377729;28;20029;-69
2023/02/24 04:05:26;;;;;;;13.15;10.43;;;;;;;;;;10390331;28;20384;-64
2023/02/24 04:10:52;;;;;;;12.88;9.93;;;;;;;;;;10405604;28;20033;-63
2023/02/24 04:16:01;;;;;;;13.52;9.75;;;;;;;;;;10385016;28;20025;-68
2023/02/24 04:21:04;;;;;;;11.70;9.50;;;;;;;;;;10388174;28;20041;-61
2023/02/24 04:26:05;;;;;;;11.80;9.32;;;;;;;;;;10404929;28;20120;-61
2023/02/24 04:31:16;;;;;;;11.82;9.32;;;;;;;;;;10405533;28;20044;-61
2023/02/24 04:36:19;;;;;;;15.15;9.38;;;;;;;;;;10413007;28;20018;-60
2023/02/24 04:41:19;;;;;;;12.88;8.73;;;;;;;;;;10413883;28;20021;-61
2023/02/24 04:46:22;;;;;;;12.18;9.50;;;;;;;;;;10412293;28;20425;-62
2023/02/24 04:51:22;;;;;;;15.80;9.10;;;;;;;;;;10409741;28;20037;-61
2023/02/24 04:56:23;;;;;;;11.60;8.60;;;;;;;;;;10411786;28;20412;-61
2023/02/24 05:01:23;;;;;;;12.25;9.13;;;;;;;;;;10412819;28;20349;-61
2023/02/24 05:06:24;;;;;;;12.63;9.68;;;;;;;;;;10411962;28;20071;-61
2023/02/24 05:11:26;;;;;;;13.05;9.88;;;;;;;;;;10411703;28;20029;-60
2023/02/24 05:16:27;;;;;;;11.32;9.27;;;;;;;;;;10413043;28;20497;-61
2023/02/24 05:21:37;;;;;;;10.00;8.73;;;;;;;;;;10412483;28;20036;-68
2023/02/24 05:26:40;;;;;;;10.88;8.70;;;;;;;;;;10412273;28;20540;-68
2023/02/24 05:31:41;;;;;;;13.85;9.43;;;;;;;;;;10412190;28;20563;-67
2023/02/24 05:36:44;;;;;;;12.40;8.70;;;;;;;;;;10410920;28;20196;-68
2023/02/24 05:41:47;;;;;;;14.15;10.13;;;;;;;;;;10410837;28;20061;-66
2023/02/24 05:46:55;;;;;;;11.18;9.00;;;;;;;;;;10410330;28;20050;-68
2023/02/24 05:52:00;;;;;;;14.43;9.93;;;;;;;;;;10408198;28;20472;-68
2023/02/24 05:57:10;;;;;;;12.05;8.75;;;;;;;;;;10394286;28;20164;-69
2023/02/24 06:02:15;;;;;;;11.18;9.20;;;;;;;;;;10406043;28;20108;-67
2023/02/24 06:07:18;;;;;;;14.48;8.80;;;;;;;;;;10410855;28;20029;-66
2023/02/24 06:12:21;;;;;;;12.57;9.80;;;;;;;;;;10410039;28;20042;-67
2023/02/24 06:17:23;;;;;;;13.05;9.40;;;;;;;;;;10408525;28;20025;-61
2023/02/24 06:22:25;;;;;;;10.88;8.60;;;;;;;;;;10409732;28;20041;-64
2023/02/24 06:27:26;;;;;;;11.20;8.98;;;;;;;;;;10409643;28;20200;-61
2023/02/24 06:32:26;;;;;;;11.43;8.70;;;;;;;;;;10403196;28;20589;-60
2023/02/24 06:37:28;;;;;;;11.25;8.98;;;;;;;;;;10407806;28;20342;-60
2023/02/24 06:42:29;;;;;;;11.60;9.45;;;;;;;;;;10407882;28;20392;-60
2023/02/24 06:47:31;;;;;;;11.88;8.52;;;;;;;;;;10407425;28;20044;-60
2023/02/24 06:52:32;;;;;;;17.60;9.23;;;;;;;;;;10392049;28;20033;-61
2023/02/24 06:57:33;;;;;;;18.88;12.18;;;;;;;;;;10408297;28;20053;-64
2023/02/24 07:02:38;;;;;;;20.85;12.10;;;;;;;;;;10403664;28;20467;-61
2023/02/24 07:07:44;;;;;;;14.55;11.05;;;;;;;;;;10403026;28;20073;-60
2023/02/24 07:12:45;;;;;;;20.38;12.90;;;;;;;;;;10408593;28;20115;-61
2023/02/24 07:17:45;;;;;;;19.13;13.68;;;;;;;;;;10407809;28;20104;-60
2023/02/24 07:22:46;;;;;;;25.40;16.20;;;;;;;;;;10406198;28;20026;-58
2023/02/24 07:27:47;;;;;;;26.20;15.27;;;;;;;;;;10396539;28;20033;-73
2023/02/24 07:32:48;;;;;;;25.45;16.65;;;;;;;;;;10395231;28;20025;-74
2023/02/24 07:37:49;;;;;;;26.25;16.45;;;;;;;;;;10407122;28;20025;-70
2023/02/24 07:42:52;;;;;;;25.10;18.00;;;;;;;;;;10406539;28;20101;-74
2023/02/24 07:47:53;;;;;;;25.63;17.40;;;;;;;;;;10405469;28;20373;-70
2023/02/24 07:52:53;;;;;;;33.40;18.88;;;;;;;;;;10403563;28;20021;-73
2023/02/24 07:57:55;;;;;;;29.73;19.10;;;;;;;;;;10405696;28;20022;-73
2023/02/24 08:02:57;;;;;;;27.02;17.63;;;;;;;;;;10406235;28;20021;-73
2023/02/24 08:07:57;;;;;;;26.20;17.65;;;;;;;;;;10407248;28;20039;-60
2023/02/24 08:13:01;;;;;;;25.13;18.25;;;;;;;;;;10414805;28;20037;-60
2023/02/24 08:18:02;;;;;;;32.13;19.92;;;;;;;;;;10414664;28;20032;-61
2023/02/24 08:23:07;;;;;;;29.88;18.55;;;;;;;;;;10413956;28;20033;-60
2023/02/24 08:28:10;;;;;;;29.42;18.98;;;;;;;;;;10414097;28;20057;-60
2023/02/24 08:33:18;;;;;;;28.30;19.23;;;;;;;;;;10413517;28;20032;-60
2023/02/24 08:38:21;;;;;;;;;;;;;;;;;;10414250;28;20033;-60
2023/02/24 08:43:33;;;;;;;29.30;18.88;;;;;;;;;;10413226;28;19962;-60
2023/02/24 08:48:45;;;;;;;28.83;18.92;;;;;;;;;;10410870;28;20029;-60
2023/02/24 08:53:45;;;;;;;27.92;19.20;;;;;;;;;;10413189;28;20108;-60
2023/02/24 08:58:46;;;;;;;27.23;19.45;;;;;;;;;;10413214;28;20025;-60
2023/02/24 09:03:54;;;;;;;30.60;19.27;;;;;;;;;;10412374;28;20025;-60
2023/02/24 09:14:19;;;;;;;27.05;19.40;;;;;;;;;;10413071;28;20021;-60
2023/02/24 09:19:39;;;;;;;27.73;20.15;;;;;;;;;;10410514;28;20108;-60
2023/02/24 09:24:41;;;;;;;27.88;19.23;;;;;;;;;;10412659;28;20029;-60
2023/02/24 09:29:48;;;;;;;31.27;19.88;;;;;;;;;;10411518;28;20030;-61
2023/02/24 09:34:48;;;;;;;29.65;19.08;;;;;;;;;;10411395;28;20030;-61
2023/02/24 09:45:10;;;;;;;28.67;20.33;;;;;;;;;;10410408;28;20046;-63
2023/02/24 09:50:19;;;;;;;30.05;20.35;;;;;;;;;;10391689;28;20377;-62
2023/02/24 09:55:26;;;;;;;33.05;20.58;;;;;;;;;;10410864;28;20246;-63
2023/02/24 10:00:32;;;;;;;27.60;19.08;;;;;;;;;;10410782;28;20075;-63
2023/02/24 10:05:44;;;;;;;28.30;20.00;;;;;;;;;;10393184;28;20032;-61
2023/02/24 10:11:05;;;;;;;25.90;19.15;;;;;;;;;;10394234;28;20056;-60
2023/02/24 10:16:12;;;;;;;29.55;19.98;;;;;;;;;;10407842;28;20026;-60
2023/02/24 10:22:29;;;;;;;28.52;19.15;;;;;;;;;;10392570;28;20037;-60
2023/02/24 10:27:40;;;;;;;31.02;20.67;;;;;;;;;;10370343;28;20080;-61
2023/02/24 10:32:57;;;;;;;27.52;19.10;;;;;;;;;;10409127;28;20044;-60
2023/02/24 10:38:06;;;;;;;27.50;20.10;;;;;;;;;;10409732;28;20024;-60
2023/02/24 10:43:09;;;;;;;26.17;19.33;;;;;;;;;;10408129;28;20085;-60
2023/02/24 10:48:23;;;;;;;31.60;20.40;;;;;;;;;;10407703;28;20296;-61
2023/02/24 10:58:55;;;;;;;28.70;20.40;;;;;;;;;;10390199;28;20506;-60
2023/02/24 11:04:21;;;;;;;32.75;21.10;;;;;;;;;;10407465;28;20045;-60
2023/02/24 11:20:09;;;;;;;28.10;20.08;;;;;;;;;;10408125;28;20555;-60
2023/02/24 11:25:38;;;;;;;29.10;20.17;;;;;;;;;;10397242;28;20017;-60
2023/02/24 11:31:05;;;;;;;32.58;20.88;;;;;;;;;;10391537;28;20510;-60
2023/02/24 11:37:02;;;;;;;32.00;21.55;;;;;;;;;;10359616;28;20035;-67
2023/02/24 11:42:10;;;;;;;34.33;23.40;;;;;;;;;;10393298;28;20049;-60
2023/02/24 11:47:19;;;;;;;35.83;23.38;;;;;;;;;;10389682;28;20041;-60
2023/02/24 11:52:29;;;;;;;38.22;24.58;;;;;;;;;;10389740;28;20342;-60
2023/02/24 11:58:00;;;;;;;36.00;24.35;;;;;;;;;;10406811;28;20029;-60
2023/02/24 12:03:24;;;;;;;39.13;24.35;;;;;;;;;;10401059;28;20069;-61
2023/02/24 12:08:37;;;;;;;37.92;25.13;;;;;;;;;;10389185;28;20461;-61
2023/02/24 12:13:44;;;;;;;38.72;25.73;;;;;;;;;;10389365;28;20159;-61
2023/02/24 12:18:58;;;;;;;42.80;26.98;;;;;;;;;;10404542;28;20026;-60
2023/02/24 12:24:00;;;;;;;45.28;28.35;;;;;;;;;;10387657;28;20021;-60
2023/02/24 12:29:28;;;;;;;45.22;29.17;;;;;;;;;;10386542;28;20113;-60
2023/02/24 12:34:31;;;;;;;;;;;;;;;;;;10405211;28;20030;-60
2023/02/24 12:39:53;;;;;;;46.53;28.23;;;;;;;;;;10404575;28;20322;-60
2023/02/24 12:45:20;;;;;;;45.25;26.90;;;;;;;;;;10389015;28;20046;-60
2023/02/24 12:50:42;;;;;;;38.40;25.43;;;;;;;;;;10386528;28;20550;-60
2023/02/24 12:56:06;;;;;;;36.05;24.50;;;;;;;;;;10390095;28;20029;-60
2023/02/24 13:01:34;;;;;;;37.95;25.80;;;;;;;;;;10395775;28;20057;-60
2023/02/24 13:06:51;;;;;;;35.90;23.65;;;;;;;;;;10386227;28;20063;-60
2023/02/24 13:12:12;;;;;;;38.72;24.02;;;;;;;;;;10381626;28;20027;-60
2023/02/24 13:17:14;;;;;;;41.45;24.27;;;;;;;;;;10394404;28;20057;-60
2023/02/24 13:22:15;;;;;;;36.72;21.63;;;;;;;;;;10405382;28;20033;-65
2023/02/24 13:27:35;;;;;;;38.95;23.63;;;;;;;;;;10400845;28;20401;-62
2023/02/24 13:32:40;;;;;;;39.67;23.25;;;;;;;;;;10404569;28;20037;-60
2023/02/24 13:37:44;;;;;;;36.92;23.52;;;;;;;;;;10392442;28;20033;-63
2023/02/24 13:42:57;;;;;;;38.30;23.13;;;;;;;;;;10385371;28;20046;-60
2023/02/24 13:48:31;;;;;;;37.92;23.48;;;;;;;;;;10410055;28;20029;-61
2023/02/24 13:53:41;;;;;;;34.65;22.58;;;;;;;;;;10399460;28;20041;-61
2023/02/24 13:58:57;;;;;;;38.88;22.65;;;;;;;;;;10410213;28;20523;-60
2023/02/24 14:04:31;;;;;;;33.28;21.48;;;;;;;;;;10406701;28;20144;-60
2023/02/24 14:09:45;;;;;;;31.98;20.83;;;;;;;;;;10389143;28;20052;-60
2023/02/24 14:14:47;;;;;;;30.55;20.67;;;;;;;;;;10391497;28;20035;-60
2023/02/24 14:19:47;;;;;;;31.55;20.98;;;;;;;;;;10408841;28;20033;-61
2023/02/24 14:24:48;;;;;;;34.85;21.38;;;;;;;;;;10407090;28;20040;-60
2023/02/24 14:29:51;;;;;;;30.67;20.60;;;;;;;;;;10405083;28;20033;-65
2023/02/24 14:34:53;;;;;;;29.00;20.20;;;;;;;;;;10384382;28;20028;-60
2023/02/24 14:39:59;;;;;;;29.20;19.98;;;;;;;;;;10388493;28;20041;-60
2023/02/24 14:45:00;;;;;;;32.90;20.92;;;;;;;;;;10408319;28;20058;-60
2023/02/24 14:50:04;;;;;;;32.33;20.40;;;;;;;;;;10404108;28;20487;-60
2023/02/24 14:55:18;;;;;;;33.72;20.52;;;;;;;;;;10407985;28;20029;-60
2023/02/24 15:00:24;;;;;;;33.58;19.23;;;;;;;;;;10407298;28;20045;-60
2023/02/24 15:05:25;;;;;;;25.75;19.05;;;;;;;;;;10390208;28;20025;-60
2023/02/24 15:10:29;;;;;;;31.48;19.88;;;;;;;;;;10406783;28;20025;-60
2023/02/24 15:15:37;;;;;;;28.77;19.55;;;;;;;;;;10406672;28;20088;-60
2023/02/24 15:20:39;;;;;;;27.27;19.15;;;;;;;;;;10407658;28;20025;-60
2023/02/24 15:25:44;;;;;;;31.05;18.88;;;;;;;;;;10389442;28;20033;-61
2023/02/24 15:31:03;;;;;;;29.65;18.50;;;;;;;;;;10406516;28;20041;-60
2023/02/24 15:36:24;;;;;;;26.02;18.23;;;;;;;;;;10405757;28;20029;-61
2023/02/24 15:41:36;;;;;;;30.33;19.48;;;;;;;;;;10406024;28;20029;-60
2023/02/24 15:46:36;;;;;;;27.55;18.90;;;;;;;;;;10383583;28;20042;-60
2023/02/24 15:51:45;;;;;;;28.90;19.00;;;;;;;;;;10372836;28;20034;-60
2023/02/24 15:56:47;;;;;;;27.50;18.27;;;;;;;;;;10367795;28;20119;-60
2023/02/24 16:01:50;;;;;;;28.52;18.65;;;;;;;;;;10368470;28;20513;-61
2023/02/24 16:06:55;;;;;;;29.17;20.38;;;;;;;;;;10399783;28;20064;-60
2023/02/24 16:11:55;;;;;;;28.60;20.10;;;;;;;;;;10399039;28;20032;-61
2023/02/24 16:16:58;;;;;;;29.77;19.95;;;;;;;;;;10403418;28;20032;-60
2023/02/24 16:21:58;;;;;;;29.50;20.50;;;;;;;;;;10379919;28;20024;-60
2023/02/24 16:26:59;;;;;;;31.65;20.08;;;;;;;;;;10406183;28;20025;-60
2023/02/24 16:31:59;;;;;;;27.42;19.25;;;;;;;;;;10411607;28;20021;-60
2023/02/24 16:37:00;;;;;;;30.08;19.95;;;;;;;;;;10413274;28;20044;-60
2023/02/24 16:42:05;;;;;;;35.50;22.25;;;;;;;;;;10413869;28;20026;-59
2023/02/24 16:47:10;;;;;;;35.58;24.85;;;;;;;;;;10413228;28;20060;-60
2023/02/24 16:52:12;;;;;;;38.83;22.55;;;;;;;;;;10412507;28;20025;-60
2023/02/24 16:57:13;;;;;;;37.00;24.33;;;;;;;;;;10413541;28;20022;-59
2023/02/24 17:02:21;;;;;;;38.75;23.25;;;;;;;;;;10412966;28;20038;-60
2023/02/24 17:07:21;;;;;;;37.30;23.15;;;;;;;;;;10386414;28;20116;-60
2023/02/24 17:12:22;;;;;;;40.70;23.38;;;;;;;;;;10406589;28;20037;-60
2023/02/24 17:17:23;;;;;;;35.67;22.88;;;;;;;;;;10377762;28;20518;-60
2023/02/24 17:22:23;;;;;;;37.17;23.40;;;;;;;;;;10383579;28;20473;-61
2023/02/24 17:27:24;;;;;;;39.15;21.83;;;;;;;;;;10377013;28;20457;-61
2023/02/24 17:32:24;;;;;;;33.97;22.52;;;;;;;;;;10373702;28;20026;-60
2023/02/24 17:37:25;;;;;;;35.17;22.40;;;;;;;;;;10378569;28;20049;-60
2023/02/24 17:42:26;;;;;;;41.90;22.95;;;;;;;;;;10374718;28;20365;-60
2023/02/24 17:47:26;;;;;;;39.33;21.85;;;;;;;;;;10375348;28;20025;-59
2023/02/24 17:52:28;;;;;;;37.25;22.33;;;;;;;;;;10390009;28;20049;-60
2023/02/24 17:57:28;;;;;;;35.05;21.00;;;;;;;;;;10391732;28;20051;-60
2023/02/24 18:02:29;;;;;;;31.90;21.48;;;;;;;;;;10404169;28;20032;-60
2023/02/24 18:07:30;;;;;;;36.08;22.02;;;;;;;;;;10392544;28;20513;-60
2023/02/24 18:12:30;;;;;;;32.58;20.70;;;;;;;;;;10407316;28;20029;-60
2023/02/24 18:17:32;;;;;;;31.95;21.20;;;;;;;;;;10402349;28;20033;-60
2023/02/24 18:22:33;;;;;;;39.38;20.38;;;;;;;;;;10376085;28;20415;-60
2023/02/24 18:27:33;;;;;;;30.42;19.90;;;;;;;;;;10391305;28;20037;-60
2023/02/24 18:32:34;;;;;;;32.40;20.98;;;;;;;;;;10407119;28;20108;-60
2023/02/24 18:37:34;;;;;;;28.50;19.80;;;;;;;;;;10381734;28;20612;-60
2023/02/24 18:42:35;;;;;;;33.17;19.70;;;;;;;;;;10390020;28;20095;-60
2023/02/24 18:47:35;;;;;;;31.83;19.42;;;;;;;;;;10402511;28;20037;-60
2023/02/24 18:52:36;;;;;;;28.92;18.98;;;;;;;;;;10397705;28;20029;-60
2023/02/24 18:57:37;;;;;;;29.13;17.92;;;;;;;;;;10405493;28;20894;-60
2023/02/24 19:02:37;;;;;;;28.25;17.85;;;;;;;;;;10384765;28;20477;-60
2023/02/24 19:07:38;;;;;;;30.30;18.60;;;;;;;;;;10395324;28;20385;-59
2023/02/24 19:12:38;;;;;;;23.40;16.58;;;;;;;;;;10399422;28;20108;-60
2023/02/24 19:17:39;;;;;;;29.23;17.25;;;;;;;;;;10389482;28;20026;-60
2023/02/24 19:22:41;;;;;;;23.05;16.08;;;;;;;;;;10405741;28;20029;-60
2023/02/24 19:27:42;;;;;;;24.50;16.27;;;;;;;;;;10382643;28;20060;-60
2023/02/24 19:32:42;;;;;;;24.95;16.70;;;;;;;;;;10403396;28;20040;-60
2023/02/24 19:37:46;;;;;;;23.48;15.60;;;;;;;;;;10405024;28;20057;-59
2023/02/24 19:42:48;;;;;;;23.05;16.52;;;;;;;;;;10406139;28;20527;-59
2023/02/24 19:47:49;;;;;;;21.10;15.25;;;;;;;;;;10404473;28;20068;-59
2023/02/24 19:52:50;;;;;;;25.40;16.90;;;;;;;;;;10404354;28;20103;-60
2023/02/24 19:57:54;;;;;;;27.17;15.98;;;;;;;;;;10402914;28;20025;-59
2023/02/24 20:02:55;;;;;;;21.10;15.18;;;;;;;;;;10406651;28;20020;-60
2023/02/24 20:07:56;;;;;;;22.40;14.73;;;;;;;;;;10401678;28;20056;-59
2023/02/24 20:12:57;;;;;;;20.42;14.88;;;;;;;;;;10401545;28;20057;-60
2023/02/24 20:18:01;;;;;;;19.90;15.05;;;;;;;;;;10403106;28;20427;-60
2023/02/24 20:23:02;;;;;;;35.30;15.68;;;;;;;;;;10404378;28;20025;-59
2023/02/24 20:28:03;;;;;;;28.23;16.15;;;;;;;;;;10401515;28;20037;-60
2023/02/24 20:33:03;;;;;;;27.65;14.68;;;;;;;;;;10405192;28;20036;-60
2023/02/24 20:38:04;;;;;;;35.17;16.90;;;;;;;;;;10386088;28;20029;-60
2023/02/24 20:43:07;;;;;;;30.55;18.08;;;;;;;;;;10400402;28;20390;-60
2023/02/24 20:48:08;;;;;;;32.00;17.55;;;;;;;;;;10389786;28;20032;-59
2023/02/24 20:53:08;;;;;;;27.90;17.52;;;;;;;;;;10402795;28;20094;-60
2023/02/24 20:58:13;;;;;;;28.85;16.92;;;;;;;;;;10406310;28;20467;-59
2023/02/24 21:03:14;;;;;;;29.33;17.58;;;;;;;;;;10405967;28;20041;-60
2023/02/24 21:08:15;;;;;;;31.20;18.13;;;;;;;;;;10405827;28;20365;-59
2023/02/24 21:13:19;;;;;;;28.15;17.48;;;;;;;;;;10405767;28;20038;-60
2023/02/24 21:18:21;;;;;;;27.55;16.95;;;;;;;;;;10411244;28;20026;-60
2023/02/24 21:23:22;;;;;;;23.80;16.45;;;;;;;;;;10412017;28;20345;-59
2023/02/24 21:28:23;;;;;;;24.65;16.00;;;;;;;;;;10412154;28;20440;-60
2023/02/24 21:33:24;;;;;;;25.95;16.15;;;;;;;;;;10411965;28;20079;-60
2023/02/24 21:38:25;;;;;;;23.52;16.25;;;;;;;;;;10402094;28;20108;-60
2023/02/24 21:43:25;;;;;;;24.75;15.70;;;;;;;;;;10411811;28;20041;-60
2023/02/24 21:48:26;;;;;;;29.73;16.42;;;;;;;;;;10411091;28;20048;-60
2023/02/24 21:53:27;;;;;;;24.27;15.93;;;;;;;;;;10409353;28;20026;-60
2023/02/24 21:58:27;;;;;;;27.73;15.88;;;;;;;;;;10410748;28;20091;-60
2023/02/24 22:03:28;;;;;;;37.78;15.93;;;;;;;;;;10397537;28;20500;-59
2023/02/24 22:08:28;;;;;;;26.73;16.00;;;;;;;;;;10382345;28;20393;-70
2023/02/24 22:13:29;;;;;;;33.40;15.95;;;;;;;;;;10388219;28;20041;-69
2023/02/24 22:18:30;;;;;;;38.28;15.68;;;;;;;;;;10399931;28;20033;-62
2023/02/24 22:23:30;;;;;;;25.95;15.02;;;;;;;;;;10407066;28;20565;-60
2023/02/24 22:28:37;;;;;;;22.55;14.50;;;;;;;;;;10409549;28;20040;-60
2023/02/24 22:33:40;;;;;;;37.78;15.82;;;;;;;;;;10409916;28;20038;-61
2023/02/24 22:38:42;;;;;;;28.63;14.82;;;;;;;;;;10407656;28;20435;-61
2023/02/24 22:43:43;;;;;;;29.05;14.57;;;;;;;;;;10409080;28;20657;-60
2023/02/24 22:48:44;;;;;;;26.02;14.32;;;;;;;;;;10407640;28;20026;-60
2023/02/24 22:53:47;;;;;;;22.67;13.80;;;;;;;;;;10409408;28;20037;-60
2023/02/24 22:58:48;;;;;;;29.20;14.75;;;;;;;;;;10409488;28;20029;-60
2023/02/24 23:03:49;;;;;;;18.00;12.55;;;;;;;;;;10408451;28;20488;-60
2023/02/24 23:08:52;;;;;;;24.67;13.07;;;;;;;;;;10408473;28;20052;-60
2023/02/24 23:13:53;;;;;;;24.95;13.05;;;;;;;;;;10407947;28;20021;-60
2023/02/24 23:18:57;;;;;;;22.40;13.70;;;;;;;;;;10406625;28;20386;-60
2023/02/24 23:23:59;;;;;;;22.23;13.73;;;;;;;;;;10405999;28;20419;-67
2023/02/24 23:29:00;;;;;;;27.02;11.23;;;;;;;;;;10406756;28;20086;-66
2023/02/24 23:34:05;;;;;;;18.05;12.02;;;;;;;;;;10407425;28;20031;-66
2023/02/24 23:39:07;;;;;;;21.25;12.68;;;;;;;;;;10406174;28;20021;-66
2023/02/24 23:44:08;;;;;;;20.33;12.27;;;;;;;;;;10405515;28;20143;-66
2023/02/24 23:49:09;;;;;;;20.50;12.18;;;;;;;;;;10403866;28;20030;-67
2023/02/24 23:54:11;;;;;;;25.90;12.80;;;;;;;;;;10406549;28;20026;-66
2023/02/24 23:59:12;;;;;;;17.00;11.18;;;;;;;;;;10406801;28;20033;-65
